createdAt,value
2016-12-06T00:00:16.143Z,98.71
2016-12-06T00:01:16.155Z,98.71
2016-12-06T00:02:16.174Z,98.71
2016-12-06T00:03:16.188Z,98.62
2016-12-06T00:05:31.136Z,98.71
2016-12-06T00:06:16.224Z,98.43
2016-12-06T00:07:16.240Z,98.81
2016-12-06T00:08:16.256Z,98.81
2016-12-06T00:09:16.270Z,98.43
2016-12-06T00:10:16.281Z,98.52
2016-12-06T00:11:16.303Z,98.43
2016-12-06T00:12:16.317Z,98.62
2016-12-06T00:13:16.328Z,99
2016-12-06T00:14:16.389Z,98.52
2016-12-06T00:15:16.354Z,98.96
2016-12-06T00:16:16.372Z,98.86
2016-12-06T00:18:16.455Z,98.96
2016-12-06T00:19:16.410Z,98.86
2016-12-06T00:21:31.365Z,98.86
2016-12-06T00:22:16.460Z,98.67
2016-12-06T00:24:16.489Z,98.48
2016-12-06T00:25:16.501Z,98.96
2016-12-06T00:26:16.513Z,98.67
2016-12-06T00:27:16.527Z,98.86
2016-12-06T00:28:16.540Z,98.67
2016-12-06T00:29:16.559Z,98.67
2016-12-06T00:30:16.570Z,98.58
2016-12-06T00:31:16.583Z,98.39
2016-12-06T00:32:16.599Z,98.39
2016-12-06T00:33:16.616Z,98.96
2016-12-06T00:35:16.649Z,98.96
2016-12-06T00:36:16.662Z,99.05
2016-12-06T00:37:31.595Z,98.58
2016-12-06T00:38:16.716Z,98.58
2016-12-06T00:39:17.007Z,98.67
2016-12-06T00:40:17.020Z,98.67
2016-12-06T00:41:16.726Z,98.86
2016-12-06T00:42:16.747Z,98.86
2016-12-06T00:43:16.760Z,98.96
2016-12-06T00:44:16.773Z,99.05
2016-12-06T00:45:16.789Z,98.86
2016-12-06T00:46:16.804Z,99.43
2016-12-06T00:47:16.820Z,99.62
2016-12-06T00:48:16.831Z,99.43
2016-12-06T00:49:16.843Z,99.52
2016-12-06T00:50:16.866Z,99.43
2016-12-06T00:51:16.874Z,98.86
2016-12-06T00:52:16.888Z,99.62
2016-12-06T00:53:31.828Z,99.33
2016-12-06T00:54:16.925Z,99.24
2016-12-06T00:55:16.940Z,99.43
2016-12-06T00:56:16.949Z,99.33
2016-12-06T00:57:16.966Z,99.24
2016-12-06T00:58:17.027Z,99.24
2016-12-06T00:59:16.995Z,99.71
2016-12-06T01:00:17.006Z,99.15
2016-12-06T01:01:17.022Z,99.52
2016-12-06T01:02:17.037Z,99.43
2016-12-06T01:03:17.047Z,99.15
2016-12-06T01:04:17.065Z,99.52
2016-12-06T01:05:17.082Z,99.8
2016-12-06T01:06:17.095Z,99.43
2016-12-06T01:07:17.113Z,99.62
2016-12-06T01:08:32.048Z,99.99
2016-12-06T01:09:17.144Z,99.99
2016-12-06T01:10:17.156Z,99.52
2016-12-06T01:11:17.469Z,99.71
2016-12-06T01:12:17.186Z,99.8
2016-12-06T01:13:17.199Z,99.99
2016-12-06T01:14:17.211Z,99.99
2016-12-06T01:15:17.282Z,99.99
2016-12-06T01:16:17.245Z,99.99
2016-12-06T01:17:17.252Z,99.99
2016-12-06T01:18:17.273Z,99.99
2016-12-06T01:19:17.283Z,99.99
2016-12-06T01:20:17.300Z,99.99
2016-12-06T01:21:17.364Z,99.99
2016-12-06T01:22:17.326Z,99.99
2016-12-06T01:23:17.341Z,99.99
2016-12-06T01:24:17.360Z,99.99
2016-12-06T01:25:17.378Z,99.99
2016-12-06T01:26:17.391Z,99.99
2016-12-06T01:27:17.404Z,99.99
2016-12-06T01:28:17.418Z,99.99
2016-12-06T01:29:17.432Z,99.99
2016-12-06T01:30:17.443Z,99.99
2016-12-06T01:31:17.465Z,99.99
2016-12-06T01:32:17.474Z,99.99
2016-12-06T01:33:17.488Z,99.99
2016-12-06T01:34:17.504Z,99.99
2016-12-06T01:35:17.518Z,99.62
2016-12-06T01:36:17.533Z,99.71
2016-12-06T01:37:17.848Z,99.8
2016-12-06T01:38:17.565Z,99.99
2016-12-06T01:39:17.579Z,99.8
2016-12-06T01:40:32.514Z,99.99
2016-12-06T01:41:17.606Z,99.99
2016-12-06T01:43:17.638Z,99.99
2016-12-06T01:44:17.653Z,99.99
2016-12-06T01:45:17.667Z,99.99
2016-12-06T01:46:17.687Z,99.99
2016-12-06T01:47:17.996Z,99.71
2016-12-06T01:48:17.708Z,99.99
2016-12-06T01:49:17.722Z,99.71
2016-12-06T01:50:17.742Z,99.9
2016-12-06T01:51:17.752Z,99.52
2016-12-06T01:52:17.771Z,99.62
2016-12-06T01:53:17.782Z,99.8
2016-12-06T01:54:17.817Z,99.71
2016-12-06T01:55:17.817Z,99.99
2016-12-06T01:56:32.751Z,99.99
2016-12-06T01:57:17.845Z,99.99
2016-12-06T01:58:17.862Z,99.99
2016-12-06T01:59:17.873Z,99.99
2016-12-06T02:00:17.893Z,99.99
2016-12-06T02:01:17.903Z,99.99
2016-12-06T02:02:17.922Z,99.99
2016-12-06T02:03:17.931Z,99.99
2016-12-06T02:04:17.950Z,99.99
2016-12-06T02:05:17.963Z,99.99
2016-12-06T02:06:17.973Z,99.99
2016-12-06T02:07:17.995Z,99.99
2016-12-06T02:08:18.008Z,99.99
2016-12-06T02:09:18.023Z,99.99
2016-12-06T02:11:18.058Z,99.99
2016-12-06T02:12:32.989Z,99.99
2016-12-06T02:13:18.080Z,99.99
2016-12-06T02:14:18.100Z,99.99
2016-12-06T02:15:18.117Z,99.99
2016-12-06T02:16:18.127Z,99.99
2016-12-06T02:17:18.146Z,99.99
2016-12-06T02:18:18.161Z,99.99
2016-12-06T02:19:18.174Z,99.99
2016-12-06T02:20:18.185Z,99.99
2016-12-06T02:21:18.208Z,99.99
2016-12-06T02:22:18.225Z,99.99
2016-12-06T02:23:18.232Z,99.99
2016-12-06T02:24:18.250Z,99.99
2016-12-06T02:25:18.268Z,99.99
2016-12-06T02:28:33.231Z,99.99
2016-12-06T02:29:18.322Z,99.99
2016-12-06T02:30:18.340Z,99.99
2016-12-06T02:31:18.354Z,99.99
2016-12-06T02:32:18.374Z,99.99
2016-12-06T02:33:18.387Z,99.99
2016-12-06T02:34:18.397Z,99.99
2016-12-06T02:35:18.516Z,99.99
2016-12-06T02:36:18.430Z,99.99
2016-12-06T02:37:18.444Z,99.99
2016-12-06T02:38:18.460Z,99.99
2016-12-06T02:39:18.473Z,99.99
2016-12-06T02:40:18.491Z,99.99
2016-12-06T02:42:18.517Z,99.99
2016-12-06T02:43:33.457Z,99.99
2016-12-06T02:44:18.552Z,99.99
2016-12-06T02:45:18.564Z,99.99
2016-12-06T02:46:18.579Z,99.99
2016-12-06T02:47:18.591Z,99.99
2016-12-06T02:48:18.612Z,99.99
2016-12-06T02:49:18.621Z,99.99
2016-12-06T02:50:18.641Z,99.99
2016-12-06T02:51:18.654Z,99.99
2016-12-06T02:52:18.667Z,99.99
2016-12-06T02:53:18.684Z,99.99
2016-12-06T02:54:18.701Z,99.99
2016-12-06T02:55:18.714Z,99.99
2016-12-06T02:56:18.731Z,99.99
2016-12-06T02:57:18.748Z,99.99
2016-12-06T02:58:18.762Z,99.99
2016-12-06T03:00:18.786Z,99.99
2016-12-06T03:02:18.818Z,99.99
2016-12-06T03:03:18.831Z,99.99
2016-12-06T03:04:18.855Z,99.99
2016-12-06T03:05:18.892Z,99.99
2016-12-06T03:06:18.879Z,99.99
2016-12-06T03:07:18.894Z,99.99
2016-12-06T03:08:18.909Z,99.99
2016-12-06T03:09:18.923Z,99.99
2016-12-06T03:11:18.957Z,99.99
2016-12-06T03:12:18.968Z,99.99
2016-12-06T03:13:18.981Z,99.99
2016-12-06T03:14:18.996Z,99.99
2016-12-06T03:15:33.936Z,99.99
2016-12-06T03:16:19.033Z,99.99
2016-12-06T03:18:19.059Z,99.99
2016-12-06T03:19:19.074Z,99.99
2016-12-06T03:20:19.088Z,99.99
2016-12-06T03:21:19.104Z,99.99
2016-12-06T03:22:19.118Z,99.99
2016-12-06T03:23:19.136Z,99.99
2016-12-06T03:24:19.149Z,99.99
2016-12-06T03:25:19.166Z,99.99
2016-12-06T03:26:19.181Z,99.99
2016-12-06T03:27:19.197Z,99.99
2016-12-06T03:28:19.211Z,99.99
2016-12-06T03:29:19.229Z,99.99
2016-12-06T03:30:19.241Z,99.99
2016-12-06T03:31:34.178Z,99.99
2016-12-06T03:32:19.320Z,99.99
2016-12-06T03:34:19.299Z,99.99
2016-12-06T03:35:19.316Z,99.99
2016-12-06T03:36:19.332Z,99.99
2016-12-06T03:37:19.345Z,99.99
2016-12-06T03:38:19.360Z,99.99
2016-12-06T03:39:19.379Z,99.99
2016-12-06T03:40:19.394Z,99.99
2016-12-06T03:41:19.409Z,99.99
2016-12-06T03:42:19.420Z,99.99
2016-12-06T03:43:19.440Z,99.99
2016-12-06T03:44:19.451Z,99.99
2016-12-06T03:45:19.468Z,99.99
2016-12-06T03:46:19.485Z,99.99
2016-12-06T03:47:34.419Z,99.99
2016-12-06T03:48:19.515Z,99.99
2016-12-06T03:49:19.527Z,99.99
2016-12-06T03:50:19.544Z,99.99
2016-12-06T03:51:19.561Z,99.99
2016-12-06T03:52:19.574Z,99.99
2016-12-06T03:53:19.593Z,99.99
2016-12-06T03:54:19.603Z,99.99
2016-12-06T03:55:19.620Z,99.99
2016-12-06T03:56:19.640Z,99.99
2016-12-06T03:57:19.649Z,99.99
2016-12-06T03:58:19.973Z,99.99
2016-12-06T03:59:19.681Z,99.99
2016-12-06T04:00:19.702Z,99.99
2016-12-06T04:02:19.721Z,99.99
2016-12-06T04:03:34.660Z,99.99
2016-12-06T04:04:19.756Z,99.99
2016-12-06T04:05:19.791Z,99.99
2016-12-06T04:06:19.788Z,99.99
2016-12-06T04:07:19.800Z,99.99
2016-12-06T04:08:19.818Z,99.99
2016-12-06T04:09:19.827Z,99.99
2016-12-06T04:10:19.862Z,99.99
2016-12-06T04:11:19.863Z,99.99
2016-12-06T04:12:19.877Z,99.99
2016-12-06T04:13:19.892Z,99.99
2016-12-06T04:14:19.910Z,99.99
2016-12-06T04:15:19.924Z,99.99
2016-12-06T04:16:19.939Z,99.99
2016-12-06T04:17:19.952Z,99.99
2016-12-06T04:18:34.891Z,99.99
2016-12-06T04:19:19.985Z,99.99
2016-12-06T04:20:19.996Z,99.99
2016-12-06T04:21:20.012Z,99.99
2016-12-06T04:22:20.060Z,99.99
2016-12-06T04:23:20.047Z,99.99
2016-12-06T04:25:20.075Z,99.99
2016-12-06T04:26:20.088Z,99.99
2016-12-06T04:27:20.103Z,99.99
2016-12-06T04:28:20.121Z,99.99
2016-12-06T04:29:20.137Z,99.99
2016-12-06T04:30:20.147Z,99.99
2016-12-06T04:31:20.170Z,99.99
2016-12-06T04:32:20.179Z,99.99
2016-12-06T04:33:20.198Z,99.99
2016-12-06T04:34:20.208Z,99.99
2016-12-06T04:35:20.228Z,99.99
2016-12-06T04:36:20.239Z,99.99
2016-12-06T04:37:20.253Z,99.99
2016-12-06T04:38:20.270Z,99.99
2016-12-06T04:39:20.291Z,99.99
2016-12-06T04:40:20.302Z,99.99
2016-12-06T04:41:20.318Z,99.99
2016-12-06T04:42:20.336Z,99.99
2016-12-06T04:43:20.344Z,99.99
2016-12-06T04:44:20.367Z,99.99
2016-12-06T04:45:20.376Z,99.99
2016-12-06T04:46:20.399Z,99.99
2016-12-06T04:47:20.409Z,99.99
2016-12-06T04:48:20.429Z,99.99
2016-12-06T04:50:35.376Z,99.99
2016-12-06T04:51:20.476Z,99.99
2016-12-06T04:52:20.489Z,99.99
2016-12-06T04:53:20.500Z,99.99
2016-12-06T04:54:20.521Z,99.99
2016-12-06T04:55:20.534Z,99.99
2016-12-06T04:56:20.547Z,99.99
2016-12-06T04:57:20.562Z,99.99
2016-12-06T04:58:20.579Z,99.99
2016-12-06T04:59:20.597Z,99.99
2016-12-06T05:00:20.655Z,99.99
2016-12-06T05:01:20.626Z,99.99
2016-12-06T05:02:20.643Z,99.99
2016-12-06T05:04:20.672Z,99.76
2016-12-06T05:05:20.686Z,99.66
2016-12-06T05:06:35.625Z,99.95
2016-12-06T05:08:20.739Z,99.66
2016-12-06T05:09:20.747Z,99.85
2016-12-06T05:10:20.765Z,99.76
2016-12-06T05:11:20.783Z,99.85
2016-12-06T05:12:20.795Z,99.66
2016-12-06T05:13:20.814Z,99.99
2016-12-06T05:14:20.823Z,99.99
2016-12-06T05:15:20.838Z,99.99
2016-12-06T05:16:20.863Z,99.95
2016-12-06T05:17:20.870Z,99.57
2016-12-06T05:18:20.887Z,99.38
2016-12-06T05:19:20.904Z,99.85
2016-12-06T05:20:20.919Z,99.19
2016-12-06T05:21:20.938Z,99.66
2016-12-06T05:22:35.869Z,99.29
2016-12-06T05:24:20.980Z,99.48
2016-12-06T05:25:20.995Z,99.38
2016-12-06T05:26:21.012Z,99.38
2016-12-06T05:27:21.025Z,99.48
2016-12-06T05:28:21.039Z,99.85
2016-12-06T05:29:21.056Z,99.85
2016-12-06T05:30:21.075Z,99.76
2016-12-06T05:31:21.090Z,99.33
2016-12-06T05:32:21.100Z,99.29
2016-12-06T05:33:21.118Z,99.19
2016-12-06T05:34:21.135Z,99.9
2016-12-06T05:36:21.164Z,99.43
2016-12-06T05:37:21.180Z,99.19
2016-12-06T05:38:36.117Z,99.48
2016-12-06T05:39:21.210Z,99.52
2016-12-06T05:41:21.241Z,99.81
2016-12-06T05:42:21.260Z,99.33
2016-12-06T05:43:21.278Z,99.52
2016-12-06T05:44:21.287Z,98.86
2016-12-06T05:45:21.308Z,99.01
2016-12-06T05:46:21.623Z,99.05
2016-12-06T05:47:21.337Z,99.33
2016-12-06T05:48:21.347Z,99.62
2016-12-06T05:49:21.664Z,99.24
2016-12-06T05:50:21.381Z,99.33
2016-12-06T05:52:21.415Z,99.71
2016-12-06T05:53:36.352Z,99.43
2016-12-06T05:54:21.495Z,99.52
2016-12-06T05:55:21.466Z,99.52
2016-12-06T05:56:21.478Z,99.52
2016-12-06T05:57:21.494Z,99.57
2016-12-06T05:58:21.508Z,99.52
2016-12-06T05:59:21.519Z,99.52
2016-12-06T06:00:21.536Z,99.99
2016-12-06T06:01:21.554Z,99.99
2016-12-06T06:02:21.567Z,99.99
2016-12-06T06:03:21.584Z,99.99
2016-12-06T06:04:21.601Z,99.99
2016-12-06T06:05:21.617Z,99.52
2016-12-06T06:06:21.628Z,99.9
2016-12-06T06:07:21.645Z,99.99
2016-12-06T06:09:21.678Z,99.66
2016-12-06T06:10:21.691Z,99.99
2016-12-06T06:11:21.715Z,99.99
2016-12-06T06:12:21.724Z,99.99
2016-12-06T06:13:21.741Z,99.99
2016-12-06T06:14:21.752Z,99.99
2016-12-06T06:15:21.769Z,99.99
2016-12-06T06:16:21.815Z,99.99
2016-12-06T06:17:21.802Z,99.99
2016-12-06T06:18:21.818Z,99.99
2016-12-06T06:19:21.829Z,99.99
2016-12-06T06:22:21.877Z,99.99
2016-12-06T06:23:21.904Z,99.81
2016-12-06T06:25:36.846Z,99.99
2016-12-06T06:26:21.940Z,99.99
2016-12-06T06:27:22.010Z,99.81
2016-12-06T06:28:21.973Z,99.62
2016-12-06T06:29:21.990Z,99.99
2016-12-06T06:30:22.000Z,99.9
2016-12-06T06:31:22.020Z,99.71
2016-12-06T06:32:22.085Z,99.99
2016-12-06T06:33:22.051Z,99.9
2016-12-06T06:34:22.069Z,99.99
2016-12-06T06:35:22.082Z,99.99
2016-12-06T06:36:22.099Z,99.99
2016-12-06T06:37:22.108Z,99.99
2016-12-06T06:38:22.175Z,99.99
2016-12-06T06:39:22.140Z,99.99
2016-12-06T06:40:22.161Z,99.99
2016-12-06T06:41:37.095Z,99.99
2016-12-06T06:42:22.193Z,99.99
2016-12-06T06:44:22.228Z,99.99
2016-12-06T06:45:22.235Z,99.99
2016-12-06T06:46:22.254Z,99.99
2016-12-06T06:47:22.267Z,99.99
2016-12-06T06:48:22.285Z,99.99
2016-12-06T06:49:22.301Z,99.99
2016-12-06T06:50:22.315Z,99.99
2016-12-06T06:51:22.331Z,99.99
2016-12-06T06:52:22.346Z,99.99
2016-12-06T06:53:22.361Z,99.99
2016-12-06T06:54:22.372Z,99.99
2016-12-06T06:55:22.391Z,99.99
2016-12-06T06:56:22.410Z,99.99
2016-12-06T06:57:37.344Z,99.99
2016-12-06T06:58:22.451Z,99.99
2016-12-06T06:59:22.460Z,99.99
2016-12-06T07:00:22.773Z,99.99
2016-12-06T07:01:22.488Z,99.99
2016-12-06T07:02:22.497Z,99.99
2016-12-06T07:03:22.520Z,99.99
2016-12-06T07:04:22.536Z,99.99
2016-12-06T07:05:22.544Z,99.99
2016-12-06T07:06:22.567Z,99.99
2016-12-06T07:07:22.580Z,99.99
2016-12-06T07:08:22.895Z,99.99
2016-12-06T07:09:22.610Z,99.99
2016-12-06T07:11:22.646Z,99.99
2016-12-06T07:12:22.960Z,99.99
2016-12-06T07:13:37.595Z,99.99
2016-12-06T07:14:22.689Z,99.99
2016-12-06T07:15:22.706Z,99.99
2016-12-06T07:16:22.720Z,99.99
2016-12-06T07:17:22.734Z,99.99
2016-12-06T07:18:22.752Z,99.99
2016-12-06T07:19:22.767Z,99.99
2016-12-06T07:20:22.781Z,99.99
2016-12-06T07:21:22.812Z,99.99
2016-12-06T07:22:22.817Z,99.99
2016-12-06T07:23:22.826Z,99.99
2016-12-06T07:24:22.843Z,99.99
2016-12-06T07:25:22.858Z,99.99
2016-12-06T07:26:23.178Z,99.99
2016-12-06T07:27:22.892Z,99.99
2016-12-06T07:28:37.833Z,99.99
2016-12-06T07:29:22.926Z,99.99
2016-12-06T07:30:22.944Z,99.99
2016-12-06T07:31:22.958Z,99.99
2016-12-06T07:32:22.974Z,99.99
2016-12-06T07:33:22.997Z,99.99
2016-12-06T07:34:23.007Z,99.99
2016-12-06T07:35:23.017Z,99.99
2016-12-06T07:36:23.035Z,99.99
2016-12-06T07:37:23.052Z,99.99
2016-12-06T07:38:23.065Z,99.99
2016-12-06T07:39:23.081Z,99.99
2016-12-06T07:40:23.096Z,99.99
2016-12-06T07:41:23.111Z,99.99
2016-12-06T07:43:23.145Z,99.99
2016-12-06T07:44:23.164Z,99.99
2016-12-06T07:45:23.178Z,99.99
2016-12-06T07:46:23.190Z,99.99
2016-12-06T07:47:23.207Z,99.99
2016-12-06T07:48:23.219Z,99.99
2016-12-06T07:49:23.245Z,99.99
2016-12-06T07:50:23.252Z,99.99
2016-12-06T07:51:23.271Z,99.81
2016-12-06T07:52:23.284Z,99.81
2016-12-06T07:53:23.304Z,99.81
2016-12-06T07:54:23.318Z,99.71
2016-12-06T07:55:23.336Z,99.43
2016-12-06T07:56:23.351Z,99.71
2016-12-06T07:58:23.379Z,99.52
2016-12-06T08:00:38.334Z,99.62
2016-12-06T08:01:23.475Z,99.43
2016-12-06T08:02:23.446Z,99.52
2016-12-06T08:03:23.468Z,99.71
2016-12-06T08:04:23.479Z,99.43
2016-12-06T08:05:23.493Z,99.52
2016-12-06T08:06:23.508Z,99.24
2016-12-06T08:07:23.527Z,99.24
2016-12-06T08:08:23.542Z,99.43
2016-12-06T08:09:23.558Z,99.33
2016-12-06T08:10:23.569Z,99.71
2016-12-06T08:11:23.586Z,99.52
2016-12-06T08:12:23.605Z,99.52
2016-12-06T08:13:23.620Z,99.33
2016-12-06T08:14:23.639Z,99.52
2016-12-06T08:16:38.587Z,99.52
2016-12-06T08:17:23.687Z,99.33
2016-12-06T08:19:23.712Z,99.52
2016-12-06T08:20:23.726Z,99.81
2016-12-06T08:21:23.742Z,99.33
2016-12-06T08:22:23.761Z,99.52
2016-12-06T08:23:23.775Z,99.62
2016-12-06T08:24:23.800Z,99.33
2016-12-06T08:25:23.804Z,98.86
2016-12-06T08:26:23.822Z,98.86
2016-12-06T08:27:23.836Z,99.43
2016-12-06T08:28:23.853Z,99.52
2016-12-06T08:29:23.871Z,99.24
2016-12-06T08:30:23.892Z,99.43
2016-12-06T08:31:23.902Z,99.43
2016-12-06T08:32:38.841Z,99.62
2016-12-06T08:33:23.930Z,99.52
2016-12-06T08:34:23.951Z,99.15
2016-12-06T08:35:23.967Z,99.05
2016-12-06T08:36:23.987Z,99.15
2016-12-06T08:37:24.000Z,98.3
2016-12-06T08:38:24.014Z,98.68
2016-12-06T08:39:24.080Z,98.86
2016-12-06T08:40:24.047Z,98.77
2016-12-06T08:41:24.059Z,98.86
2016-12-06T08:42:24.077Z,98.96
2016-12-06T08:43:24.092Z,98.77
2016-12-06T08:44:24.109Z,98.77
2016-12-06T08:45:24.128Z,98.86
2016-12-06T08:46:24.147Z,98.86
2016-12-06T08:47:24.156Z,98.96
2016-12-06T08:48:39.094Z,98.58
2016-12-06T08:49:24.186Z,98.96
2016-12-06T08:50:24.203Z,98.39
2016-12-06T08:51:24.220Z,99.15
2016-12-06T08:52:24.237Z,98.86
2016-12-06T08:53:24.557Z,99.05
2016-12-06T08:54:24.266Z,98.68
2016-12-06T08:55:24.288Z,99.15
2016-12-06T08:56:24.307Z,99.05
2016-12-06T08:57:24.318Z,98.58
2016-12-06T08:58:24.331Z,98.86
2016-12-06T08:59:24.349Z,98.96
2016-12-06T09:00:24.372Z,98.86
2016-12-06T09:03:39.336Z,98.86
2016-12-06T09:04:24.431Z,98.86
2016-12-06T09:06:24.463Z,98.96
2016-12-06T09:07:24.479Z,98.72
2016-12-06T09:08:24.495Z,97.87
2016-12-06T09:10:24.527Z,97.87
2016-12-06T09:11:24.544Z,98.54
2016-12-06T09:12:24.560Z,97.87
2016-12-06T09:13:24.575Z,98.16
2016-12-06T09:14:24.588Z,97.87
2016-12-06T09:15:24.606Z,97.87
2016-12-06T09:16:24.629Z,97.87
2016-12-06T09:17:24.637Z,98.16
2016-12-06T09:18:24.657Z,98.16
2016-12-06T09:19:24.674Z,97.78
2016-12-06T09:20:24.694Z,97.87
2016-12-06T09:21:24.707Z,97.59
2016-12-06T09:22:24.718Z,97.59
2016-12-06T09:23:24.735Z,98.16
2016-12-06T09:24:24.755Z,97.97
2016-12-06T09:25:24.771Z,97.87
2016-12-06T09:26:24.786Z,97.3
2016-12-06T09:27:24.802Z,97.49
2016-12-06T09:28:24.816Z,97.3
2016-12-06T09:29:24.835Z,97.68
2016-12-06T09:30:24.851Z,97.49
2016-12-06T09:31:25.170Z,98.16
2016-12-06T09:33:24.903Z,98.25
2016-12-06T09:35:39.854Z,98.25
2016-12-06T09:38:24.982Z,97.21
2016-12-06T09:39:24.997Z,97.68
2016-12-06T09:40:25.012Z,97.3
2016-12-06T09:41:25.032Z,97.78
2016-12-06T09:42:25.047Z,97.78
2016-12-06T09:43:25.062Z,97.87
2016-12-06T09:44:25.080Z,97.4
2016-12-06T09:45:25.095Z,97.49
2016-12-06T09:47:25.127Z,97.49
2016-12-06T09:48:25.144Z,97.49
2016-12-06T09:49:25.163Z,97.49
2016-12-06T09:50:25.484Z,97.87
2016-12-06T09:51:40.117Z,97.49
2016-12-06T09:52:25.210Z,97.3
2016-12-06T09:53:25.231Z,97.78
2016-12-06T09:54:25.243Z,97.97
2016-12-06T09:55:25.257Z,98.25
2016-12-06T09:56:25.270Z,97.97
2016-12-06T09:57:25.290Z,97.97
2016-12-06T09:58:25.309Z,98.25
2016-12-06T09:59:25.324Z,97.3
2016-12-06T10:00:25.343Z,97.3
2016-12-06T10:01:25.355Z,98.06
2016-12-06T10:02:25.371Z,97.87
2016-12-06T10:03:25.395Z,98.16
2016-12-06T10:04:25.462Z,97.68
2016-12-06T10:05:25.421Z,97.59
2016-12-06T10:06:25.436Z,98.16
2016-12-06T10:07:40.378Z,98.16
2016-12-06T10:08:25.470Z,98.16
2016-12-06T10:09:25.540Z,98.06
2016-12-06T10:10:25.504Z,98.44
2016-12-06T10:11:25.516Z,97.97
2016-12-06T10:12:25.539Z,98.58
2016-12-06T10:13:25.553Z,98.58
2016-12-06T10:14:25.571Z,98.86
2016-12-06T10:15:25.585Z,98.63
2016-12-06T10:16:25.905Z,98.06
2016-12-06T10:17:25.618Z,98.35
2016-12-06T10:18:25.635Z,98.25
2016-12-06T10:19:25.651Z,98.25
2016-12-06T10:20:25.669Z,98.25
2016-12-06T10:21:25.685Z,98.16
2016-12-06T10:22:26.003Z,98.54
2016-12-06T10:23:40.640Z,98.44
2016-12-06T10:24:25.731Z,98.54
2016-12-06T10:25:25.751Z,98.54
2016-12-06T10:26:25.768Z,98.82
2016-12-06T10:27:25.784Z,99.01
2016-12-06T10:29:26.139Z,98.63
2016-12-06T10:30:25.831Z,98.82
2016-12-06T10:31:25.849Z,99.01
2016-12-06T10:32:25.862Z,98.72
2016-12-06T10:33:25.881Z,98.35
2016-12-06T10:34:25.899Z,98.54
2016-12-06T10:35:25.908Z,98.06
2016-12-06T10:36:25.927Z,98.06
2016-12-06T10:38:40.884Z,98.06
2016-12-06T10:39:25.981Z,98.35
2016-12-06T10:40:25.991Z,98.16
2016-12-06T10:41:26.012Z,97.4
2016-12-06T10:42:26.030Z,98.16
2016-12-06T10:43:26.042Z,98.25
2016-12-06T10:44:26.059Z,98.16
2016-12-06T10:45:26.079Z,98.06
2016-12-06T10:46:26.093Z,98.16
2016-12-06T10:47:26.107Z,98.72
2016-12-06T10:48:26.174Z,98.63
2016-12-06T10:49:26.143Z,98.25
2016-12-06T10:50:26.162Z,98.06
2016-12-06T10:51:26.178Z,98.35
2016-12-06T10:52:26.192Z,98.54
2016-12-06T10:53:26.207Z,98.25
2016-12-06T10:54:26.225Z,98.06
2016-12-06T10:55:26.244Z,98.72
2016-12-06T10:56:26.258Z,98.63
2016-12-06T10:57:26.273Z,98.06
2016-12-06T10:58:26.290Z,98.35
2016-12-06T10:59:26.304Z,98.72
2016-12-06T11:00:26.330Z,98.44
2016-12-06T11:01:26.346Z,98.35
2016-12-06T11:02:26.357Z,98.25
2016-12-06T11:03:26.376Z,98.25
2016-12-06T11:04:26.389Z,97.97
2016-12-06T11:05:26.404Z,98.06
2016-12-06T11:06:26.420Z,98.72
2016-12-06T11:07:26.437Z,98.25
2016-12-06T11:08:26.458Z,98.06
2016-12-06T11:10:41.413Z,98.54
2016-12-06T11:11:26.506Z,98.63
2016-12-06T11:13:26.543Z,98.35
2016-12-06T11:14:26.555Z,97.97
2016-12-06T11:15:26.571Z,98.35
2016-12-06T11:16:26.592Z,98.63
2016-12-06T11:17:26.600Z,98.54
2016-12-06T11:18:26.621Z,98.82
2016-12-06T11:19:26.641Z,99.1
2016-12-06T11:20:26.655Z,98.54
2016-12-06T11:21:26.674Z,98.91
2016-12-06T11:22:26.689Z,98.54
2016-12-06T11:23:26.703Z,98.25
2016-12-06T11:25:26.740Z,98.35
2016-12-06T11:26:41.676Z,97.49
2016-12-06T11:27:26.769Z,98.16
2016-12-06T11:28:26.790Z,97.97
2016-12-06T11:29:26.803Z,97.87
2016-12-06T11:30:26.817Z,97.02
2016-12-06T11:31:26.834Z,97.78
2016-12-06T11:32:26.854Z,97.4
2016-12-06T11:33:26.867Z,97.21
2016-12-06T11:34:26.887Z,97.3
2016-12-06T11:35:26.903Z,97.68
2016-12-06T11:36:26.922Z,97.97
2016-12-06T11:37:26.935Z,97.87
2016-12-06T11:38:26.957Z,97.87
2016-12-06T11:39:26.973Z,97.87
2016-12-06T11:40:26.992Z,97.87
2016-12-06T11:41:27.001Z,97.97
2016-12-06T11:42:41.945Z,97.97
2016-12-06T11:43:27.034Z,97.87
2016-12-06T11:44:27.055Z,98.25
2016-12-06T11:45:27.072Z,98.06
2016-12-06T11:46:27.093Z,98.16
2016-12-06T11:47:27.108Z,98.25
2016-12-06T11:48:27.119Z,98.44
2016-12-06T11:49:27.138Z,98.63
2016-12-06T11:50:27.160Z,98.44
2016-12-06T11:51:27.178Z,98.91
2016-12-06T11:52:27.190Z,98.35
2016-12-06T11:53:27.208Z,98.35
2016-12-06T11:54:27.222Z,99.39
2016-12-06T11:55:27.542Z,99.67
2016-12-06T11:57:27.274Z,99.96
2016-12-06T11:58:42.211Z,99.86
2016-12-06T11:59:27.304Z,99.99
2016-12-06T12:00:27.327Z,99.99
2016-12-06T12:01:27.340Z,99.77
2016-12-06T12:02:27.357Z,99.77
2016-12-06T12:03:27.374Z,99.99
2016-12-06T12:04:27.390Z,99.99
2016-12-06T12:05:27.408Z,99.99
2016-12-06T12:06:27.424Z,99.99
2016-12-06T12:07:27.441Z,99.99
2016-12-06T12:08:27.458Z,99.99
2016-12-06T12:09:27.471Z,99.99
2016-12-06T12:10:27.489Z,99.99
2016-12-06T12:11:27.508Z,99.99
2016-12-06T12:12:27.524Z,99.99
2016-12-06T12:13:42.466Z,99.99
2016-12-06T12:14:27.555Z,99.99
2016-12-06T12:15:27.576Z,99.99
2016-12-06T12:16:27.591Z,99.99
2016-12-06T12:17:27.609Z,99.99
2016-12-06T12:18:27.626Z,99.99
2016-12-06T12:19:27.646Z,99.99
2016-12-06T12:20:27.659Z,99.99
2016-12-06T12:21:27.679Z,99.99
2016-12-06T12:22:27.690Z,99.99
2016-12-06T12:23:27.712Z,99.99
2016-12-06T12:24:27.725Z,99.99
2016-12-06T12:25:27.792Z,99.99
2016-12-06T12:26:27.758Z,99.99
2016-12-06T12:27:27.776Z,99.99
2016-12-06T12:28:27.797Z,99.86
2016-12-06T12:30:27.825Z,99.99
2016-12-06T12:31:27.844Z,99.77
2016-12-06T12:32:27.867Z,99.86
2016-12-06T12:33:27.879Z,99.29
2016-12-06T12:34:27.897Z,99.86
2016-12-06T12:35:27.916Z,99.67
2016-12-06T12:36:27.931Z,99.67
2016-12-06T12:37:27.945Z,99.99
2016-12-06T12:38:27.959Z,99.99
2016-12-06T12:39:28.030Z,99.99
2016-12-06T12:40:27.997Z,99.99
2016-12-06T12:41:28.012Z,99.99
2016-12-06T12:42:28.029Z,99.99
2016-12-06T12:43:28.047Z,99.99
2016-12-06T12:44:28.061Z,99.99
2016-12-06T12:45:43.004Z,99.99
2016-12-06T12:46:28.099Z,99.99
2016-12-06T12:47:28.115Z,99.99
2016-12-06T12:48:28.132Z,99.99
2016-12-06T12:49:28.144Z,99.99
2016-12-06T12:50:28.165Z,99.99
2016-12-06T12:51:28.181Z,99.99
2016-12-06T12:52:28.197Z,99.99
2016-12-06T12:53:28.216Z,99.99
2016-12-06T12:54:28.239Z,99.99
2016-12-06T12:55:28.248Z,99.99
2016-12-06T12:56:28.263Z,99.99
2016-12-06T12:57:28.283Z,99.99
2016-12-06T13:00:28.330Z,99.99
2016-12-06T13:01:43.272Z,99.99
2016-12-06T13:03:28.380Z,99.99
2016-12-06T13:04:28.399Z,99.99
2016-12-06T13:05:28.420Z,99.99
2016-12-06T13:06:28.432Z,99.99
2016-12-06T13:07:28.448Z,99.99
2016-12-06T13:08:28.465Z,99.99
2016-12-06T13:09:28.482Z,99.99
2016-12-06T13:10:28.498Z,99.99
2016-12-06T13:11:28.515Z,99.99
2016-12-06T13:12:28.530Z,99.99
2016-12-06T13:13:28.547Z,99.99
2016-12-06T13:16:28.605Z,99.99
2016-12-06T13:17:43.541Z,99.99
2016-12-06T13:18:28.634Z,99.99
2016-12-06T13:19:28.651Z,99.82
2016-12-06T13:20:28.669Z,99.77
2016-12-06T13:21:28.687Z,99.99
2016-12-06T13:22:28.705Z,99.48
2016-12-06T13:23:28.718Z,99.48
2016-12-06T13:24:28.735Z,99.77
2016-12-06T13:25:28.753Z,99.77
2016-12-06T13:26:28.771Z,99.44
2016-12-06T13:27:28.787Z,99.39
2016-12-06T13:28:28.805Z,99.29
2016-12-06T13:29:28.820Z,99.39
2016-12-06T13:30:28.887Z,99.58
2016-12-06T13:31:28.852Z,99.58
2016-12-06T13:32:28.875Z,99.39
2016-12-06T13:33:43.809Z,99.99
2016-12-06T13:34:28.906Z,99.77
2016-12-06T13:36:28.937Z,99.77
2016-12-06T13:37:28.953Z,99.48
2016-12-06T13:38:28.973Z,99.48
2016-12-06T13:39:28.991Z,99.67
2016-12-06T13:40:29.005Z,99.29
2016-12-06T13:41:29.019Z,99.77
2016-12-06T13:42:29.043Z,99.96
2016-12-06T13:43:29.053Z,99.96
2016-12-06T13:44:29.077Z,99.99
2016-12-06T13:45:29.088Z,99.44
2016-12-06T13:46:29.110Z,99.58
2016-12-06T13:48:44.063Z,99.67
2016-12-06T13:51:29.194Z,99.58
2016-12-06T13:52:29.210Z,99.39
2016-12-06T13:53:29.228Z,99.96